< < Back
Terminal Aerodrome Forecast


Current Version              Previous Versions:   1  2  3  4  5  6  7  8  9  

Terminal Aerodrome Forecast

409
FTUS42 KGSP 072121 AAA
TAFCLT
TAF AMD
KCLT 072121Z 0721/0818 23008KT P6SM FEW060 SCT250
     FM080100 21003KT P6SM SCT060
     FM081400 23005G13KT P6SM SCT060=



Latest METAR

193
SAUS70 KWBC 080600 RRA
MTRCLT
METAR KCLT 080552Z 19005KT 10SM OVC250 26/19 A3013 RMK AO2 SLP191
T02560194 10311 20256 50001


USA.gov is the U.S. government's official web portal to all federal, state and local government web resources and services.